Time;durP1;ratioP1;P1;durP2;ratioP2;P2;SDS_P1;SDS_P2;PMS_P1;PMS_P2;Temp;Humidity;BMP_temperature;BMP_pressure;BME280_temperature;BME280_humidity;BME280_pressure;Samples;Min_cycle;Max_cycle;Signal;HPM_P1;HPM_P2
2022/08/13 00:01:20;;;;;;;1.40;1.30;;;;;;;;;;5041782;28;21683;-67
2022/08/13 00:03:52;;;;;;;1.27;1.10;;;;;;;;;;5055547;28;20663;-66
2022/08/13 00:07:02;;;;;;;1.50;1.40;;;;;;;;;;5058749;28;20543;-64
2022/08/13 00:09:22;;;;;;;2.50;1.20;;;;;;;;;;5059210;28;20229;-66
2022/08/13 00:14:57;;;;;;;1.30;1.30;;;;;;;;;;5054820;28;20209;-66
2022/08/13 00:17:29;;;;;;;1.40;1.40;;;;;;;;;;5051214;28;20210;-66
2022/08/13 00:20:17;;;;;;;1.10;1.10;;;;;;;;;;5052580;28;20221;-67
2022/08/13 00:22:45;;;;;;;4.20;3.70;;;;;;;;;;5057223;28;20699;-66
2022/08/13 00:25:26;;;;;;;2.30;2.10;;;;;;;;;;5056553;28;20194;-66
2022/08/13 00:28:10;;;;;;;1.63;1.53;;;;;;;;;;5051551;28;20236;-66
2022/08/13 00:30:38;;;;;;;1.50;1.40;;;;;;;;;;5064731;28;20228;-66
2022/08/13 00:33:12;;;;;;;1.33;1.30;;;;;;;;;;5056341;28;20264;-66
2022/08/13 00:35:44;;;;;;;2.50;1.63;;;;;;;;;;5061627;28;20255;-65
2022/08/13 00:38:13;;;;;;;1.53;1.43;;;;;;;;;;5054847;28;20701;-66
2022/08/13 00:40:48;;;;;;;1.70;1.60;;;;;;;;;;5056518;28;20208;-67
2022/08/13 00:43:23;;;;;;;1.60;1.50;;;;;;;;;;5054440;28;20236;-65
2022/08/13 00:45:51;;;;;;;1.70;1.60;;;;;;;;;;5045973;28;20209;-67
2022/08/13 00:51:16;;;;;;;1.60;1.50;;;;;;;;;;5055368;28;20205;-67
2022/08/13 00:54:04;;;;;;;2.83;1.60;;;;;;;;;;5049016;28;20210;-65
2022/08/13 00:56:37;;;;;;;1.50;1.40;;;;;;;;;;5061559;28;20570;-66
2022/08/13 00:59:12;;;;;;;1.57;1.47;;;;;;;;;;5055983;28;20237;-69
2022/08/13 01:01:41;;;;;;;1.87;1.50;;;;;;;;;;5058408;28;20569;-66
2022/08/13 01:04:21;;;;;;;1.80;1.70;;;;;;;;;;5057774;28;20204;-66
2022/08/13 01:06:54;;;;;;;1.73;1.63;;;;;;;;;;5055818;28;20205;-66
2022/08/13 01:09:21;;;;;;;1.70;1.60;;;;;;;;;;5059139;28;20232;-67
2022/08/13 01:12:09;;;;;;;1.70;1.60;;;;;;;;;;5040994;28;20322;-65
2022/08/13 01:14:44;;;;;;;1.90;1.60;;;;;;;;;;5055002;28;20213;-67
2022/08/13 01:17:15;;;;;;;2.53;1.50;;;;;;;;;;5059297;28;20202;-66
2022/08/13 01:19:44;;;;;;;3.47;1.90;;;;;;;;;;5066279;28;20232;-66
2022/08/13 01:22:21;;;;;;;2.17;1.43;;;;;;;;;;5054687;28;20301;-67
2022/08/13 01:25:01;;;;;;;1.80;1.70;;;;;;;;;;5049092;28;20202;-66
2022/08/13 01:27:33;;;;;;;3.23;1.80;;;;;;;;;;5043960;28;20197;-68
2022/08/13 01:30:05;;;;;;;2.00;1.90;;;;;;;;;;5048006;28;20232;-67
2022/08/13 01:32:37;;;;;;;2.10;2.00;;;;;;;;;;5055856;28;20201;-64
2022/08/13 01:35:23;;;;;;;2.00;1.90;;;;;;;;;;5057563;28;20198;-65
2022/08/13 01:37:57;;;;;;;1.40;1.30;;;;;;;;;;5042638;28;20217;-68
2022/08/13 01:40:31;;;;;;;2.00;1.80;;;;;;;;;;5059925;28;20217;-66
2022/08/13 01:43:00;;;;;;;2.60;2.40;;;;;;;;;;5056626;28;20254;-67
2022/08/13 01:45:29;;;;;;;2.87;1.70;;;;;;;;;;5058511;28;20213;-68
2022/08/13 01:50:47;;;;;;;3.20;2.40;;;;;;;;;;5058640;28;20198;-65
2022/08/13 01:53:18;;;;;;;2.40;2.20;;;;;;;;;;5059981;28;20216;-67
2022/08/13 01:55:52;;;;;;;5.07;3.10;;;;;;;;;;5062919;28;20209;-66
2022/08/13 01:58:39;;;;;;;3.87;2.87;;;;;;;;;;5049869;28;20240;-66
2022/08/13 02:01:27;;;;;;;2.57;2.37;;;;;;;;;;5061003;28;20225;-67
2022/08/13 02:04:13;;;;;;;2.20;2.10;;;;;;;;;;5046479;28;20288;-68
2022/08/13 02:06:49;;;;;;;2.33;2.23;;;;;;;;;;5059450;28;20217;-66
2022/08/13 02:09:23;;;;;;;2.67;2.13;;;;;;;;;;5050126;28;20305;-66
2022/08/13 02:12:14;;;;;;;2.10;1.90;;;;;;;;;;5065390;28;20275;-65
2022/08/13 02:15:01;;;;;;;2.43;2.23;;;;;;;;;;5060742;28;20205;-66
2022/08/13 02:17:33;;;;;;;3.07;2.10;;;;;;;;;;5060481;28;20227;-69
2022/08/13 02:20:20;;;;;;;2.80;2.03;;;;;;;;;;5060071;28;20229;-66
2022/08/13 02:22:49;;;;;;;2.93;2.00;;;;;;;;;;5069667;28;20278;-65
2022/08/13 02:25:20;;;;;;;4.00;2.23;;;;;;;;;;5050968;28;20205;-70
2022/08/13 02:27:55;;;;;;;2.27;2.07;;;;;;;;;;5067888;28;20311;-66
2022/08/13 02:30:29;;;;;;;2.30;2.10;;;;;;;;;;5057684;28;20225;-68
2022/08/13 02:33:00;;;;;;;1.90;1.80;;;;;;;;;;5054555;28;20266;-67
2022/08/13 02:35:28;;;;;;;2.50;2.30;;;;;;;;;;5064257;28;20210;-67
2022/08/13 02:38:13;;;;;;;2.30;2.10;;;;;;;;;;5054625;28;20205;-66
2022/08/13 02:43:46;;;;;;;2.20;2.10;;;;;;;;;;5065709;28;20222;-66
2022/08/13 02:46:25;;;;;;;2.30;2.07;;;;;;;;;;5062507;28;20221;-66
2022/08/13 02:48:53;;;;;;;2.57;2.30;;;;;;;;;;5067051;28;20221;-66
2022/08/13 02:51:23;;;;;;;2.27;1.80;;;;;;;;;;5067085;28;20225;-67
2022/08/13 02:54:11;;;;;;;2.40;2.20;;;;;;;;;;5065962;28;20209;-70
2022/08/13 02:56:39;;;;;;;2.03;1.93;;;;;;;;;;5047340;28;20656;-66
2022/08/13 02:59:10;;;;;;;2.30;2.13;;;;;;;;;;5063843;28;20648;-67
2022/08/13 03:01:55;;;;;;;3.03;1.97;;;;;;;;;;5078467;28;20201;-66
2022/08/13 03:04:23;;;;;;;2.40;2.20;;;;;;;;;;5050871;28;20616;-67
2022/08/13 03:07:00;;;;;;;2.47;2.27;;;;;;;;;;5058063;28;20210;-68
2022/08/13 03:09:28;;;;;;;2.00;1.90;;;;;;;;;;5052230;28;20339;-67
2022/08/13 03:11:58;;;;;;;2.50;2.07;;;;;;;;;;5053589;28;20207;-67
2022/08/13 03:14:32;;;;;;;2.10;2.00;;;;;;;;;;5050645;28;20210;-66
2022/08/13 03:16:59;;;;;;;2.53;2.00;;;;;;;;;;5068695;28;20586;-68
2022/08/13 03:19:28;;;;;;;2.13;2.03;;;;;;;;;;5052072;28;20791;-66
2022/08/13 03:21:55;;;;;;;2.40;2.20;;;;;;;;;;5062219;28;20209;-65
2022/08/13 03:24:27;;;;;;;2.57;1.80;;;;;;;;;;5050659;28;20197;-65
2022/08/13 03:26:59;;;;;;;1.97;1.87;;;;;;;;;;5067779;28;20654;-64
2022/08/13 03:29:27;;;;;;;3.30;1.83;;;;;;;;;;5052003;28;20222;-67
2022/08/13 03:32:15;;;;;;;2.10;1.80;;;;;;;;;;5080596;28;20256;-67
2022/08/13 03:34:43;;;;;;;4.93;2.27;;;;;;;;;;5044616;28;20210;-66
2022/08/13 03:37:11;;;;;;;3.40;2.07;;;;;;;;;;5050330;28;20213;-69
2022/08/13 03:39:40;;;;;;;2.87;2.33;;;;;;;;;;5062857;28;20221;-67
2022/08/13 03:42:12;;;;;;;3.97;2.10;;;;;;;;;;5047136;28;23691;-68
2022/08/13 03:45:00;;;;;;;3.00;2.10;;;;;;;;;;5044666;28;20209;-67
2022/08/13 03:47:31;;;;;;;2.03;1.87;;;;;;;;;;5080076;28;20687;-66
2022/08/13 03:49:59;;;;;;;6.43;2.40;;;;;;;;;;5066078;28;20232;-68
2022/08/13 03:52:28;;;;;;;2.80;2.60;;;;;;;;;;5068868;28;20217;-67
2022/08/13 03:55:04;;;;;;;2.40;2.20;;;;;;;;;;5067440;28;20301;-67
2022/08/13 03:57:34;;;;;;;2.87;2.67;;;;;;;;;;5067294;28;20244;-65
2022/08/13 04:00:22;;;;;;;2.83;2.63;;;;;;;;;;5055759;28;20221;-66
2022/08/13 04:02:52;;;;;;;2.30;2.20;;;;;;;;;;5068261;28;20702;-64
2022/08/13 04:05:20;;;;;;;3.57;2.53;;;;;;;;;;5052845;28;20206;-67
2022/08/13 04:08:07;;;;;;;2.83;2.63;;;;;;;;;;5058838;28;20213;-66
2022/08/13 04:10:40;;;;;;;3.27;2.37;;;;;;;;;;5046035;28;20198;-70
2022/08/13 04:13:19;;;;;;;2.40;2.20;;;;;;;;;;5060472;28;20353;-68
2022/08/13 04:16:14;;;;;;;3.53;2.40;;;;;;;;;;5062697;28;20205;-67
2022/08/13 04:18:42;;;;;;;2.87;2.47;;;;;;;;;;5057923;28;20245;-65
2022/08/13 04:21:12;;;;;;;2.40;2.20;;;;;;;;;;5046085;28;20211;-67
2022/08/13 04:23:48;;;;;;;2.40;2.30;;;;;;;;;;5044652;28;20221;-67
2022/08/13 04:26:16;;;;;;;2.40;2.10;;;;;;;;;;5042437;28;20690;-69
2022/08/13 04:28:54;;;;;;;2.80;2.20;;;;;;;;;;5053802;28;20231;-65
2022/08/13 04:31:21;;;;;;;2.97;2.27;;;;;;;;;;5060543;28;20769;-64
2022/08/13 04:33:50;;;;;;;2.53;2.33;;;;;;;;;;5060796;28;20201;-65
2022/08/13 04:36:37;;;;;;;2.97;2.20;;;;;;;;;;5053035;28;20299;-64
2022/08/13 04:39:06;;;;;;;4.83;2.47;;;;;;;;;;5054959;28;20624;-66
2022/08/13 04:41:37;;;;;;;3.20;2.40;;;;;;;;;;5054044;28;20229;-66
2022/08/13 04:44:05;;;;;;;3.33;2.20;;;;;;;;;;5040283;28;20245;-68
2022/08/13 04:46:32;;;;;;;2.30;2.07;;;;;;;;;;5052766;28;20216;-64
2022/08/13 04:49:07;;;;;;;3.87;2.40;;;;;;;;;;5059325;28;20278;-65
2022/08/13 04:51:35;;;;;;;2.10;2.00;;;;;;;;;;5040518;28;20201;-65
2022/08/13 04:54:05;;;;;;;2.70;2.50;;;;;;;;;;5063193;28;20212;-66
2022/08/13 04:56:33;;;;;;;3.63;2.00;;;;;;;;;;5046581;28;20210;-65
2022/08/13 04:59:03;;;;;;;2.60;2.47;;;;;;;;;;5048146;28;20382;-65
2022/08/13 05:01:31;;;;;;;2.10;2.00;;;;;;;;;;5051577;28;20217;-68
2022/08/13 05:04:19;;;;;;;4.23;2.43;;;;;;;;;;5065619;28;20282;-65
2022/08/13 05:06:51;;;;;;;2.93;2.73;;;;;;;;;;5051623;28;20205;-65
2022/08/13 05:09:19;;;;;;;4.27;2.90;;;;;;;;;;5043720;28;20232;-68
2022/08/13 05:11:56;;;;;;;2.70;2.50;;;;;;;;;;5046211;28;20220;-69
2022/08/13 05:14:31;;;;;;;3.90;2.40;;;;;;;;;;5060651;28;20255;-65
2022/08/13 05:17:00;;;;;;;2.93;2.73;;;;;;;;;;5059420;28;20201;-66
2022/08/13 05:19:28;;;;;;;2.70;2.50;;;;;;;;;;5045402;28;21319;-66
2022/08/13 05:22:05;;;;;;;2.83;2.63;;;;;;;;;;5045537;28;20213;-67
2022/08/13 05:24:42;;;;;;;3.20;2.90;;;;;;;;;;5077043;28;20225;-66
2022/08/13 05:27:29;;;;;;;3.37;3.07;;;;;;;;;;5052009;28;20262;-67
2022/08/13 05:30:00;;;;;;;3.20;3.00;;;;;;;;;;5056270;28;20289;-67
2022/08/13 05:32:50;;;;;;;3.13;2.80;;;;;;;;;;5064164;28;20210;-68
2022/08/13 05:35:18;;;;;;;3.00;2.80;;;;;;;;;;5061401;28;20201;-65
2022/08/13 05:38:05;;;;;;;3.60;2.90;;;;;;;;;;5064558;28;20250;-66
2022/08/13 05:40:47;;;;;;;3.20;2.93;;;;;;;;;;5048368;28;20208;-66
2022/08/13 05:43:22;;;;;;;3.10;2.90;;;;;;;;;;5061936;28;20214;-68
2022/08/13 05:45:57;;;;;;;3.77;2.30;;;;;;;;;;5069273;28;20216;-69
2022/08/13 05:48:37;;;;;;;4.22;2.13;;;;;;;;;;5046098;28;20226;-64
2022/08/13 05:51:07;;;;;;;2.20;2.00;;;;;;;;;;5060168;28;20212;-67
2022/08/13 05:53:37;;;;;;;4.25;2.28;;;;;;;;;;5072258;28;20216;-68
2022/08/13 05:56:24;;;;;;;1.90;1.80;;;;;;;;;;5058528;28;20206;-67
2022/08/13 05:58:53;;;;;;;2.63;2.38;;;;;;;;;;5052351;28;20233;-68
2022/08/13 06:04:19;;;;;;;2.10;2.00;;;;;;;;;;5064401;28;20229;-67
2022/08/13 06:07:06;;;;;;;2.35;2.20;;;;;;;;;;5043452;28;20292;-65
2022/08/13 06:09:33;;;;;;;2.67;1.98;;;;;;;;;;5055255;28;20241;-66
2022/08/13 06:12:03;;;;;;;2.50;1.80;;;;;;;;;;5072617;28;20211;-67
2022/08/13 06:14:52;;;;;;;2.10;2.00;;;;;;;;;;5050322;28;20202;-65
2022/08/13 06:17:21;;;;;;;2.17;2.08;;;;;;;;;;5048954;28;20207;-66
2022/08/13 06:19:51;;;;;;;2.35;2.17;;;;;;;;;;5051982;28;20233;-66
2022/08/13 06:22:22;;;;;;;2.20;2.08;;;;;;;;;;5061364;28;20321;-66
2022/08/13 06:24:50;;;;;;;2.53;2.30;;;;;;;;;;5060819;28;20329;-67
2022/08/13 06:27:20;;;;;;;1.90;1.80;;;;;;;;;;5045442;28;20550;-67
2022/08/13 06:30:08;;;;;;;2.80;2.22;;;;;;;;;;5054261;28;20271;-66
2022/08/13 06:32:37;;;;;;;2.50;2.30;;;;;;;;;;5043454;28;20203;-66
2022/08/13 06:35:24;;;;;;;2.15;1.80;;;;;;;;;;5058536;28;20213;-65
2022/08/13 06:38:06;;;;;;;2.42;2.17;;;;;;;;;;5053767;28;20205;-69
2022/08/13 06:40:35;;;;;;;2.03;1.92;;;;;;;;;;5054830;28;20705;-66
2022/08/13 06:43:10;;;;;;;2.53;1.92;;;;;;;;;;5053968;28;20576;-66
2022/08/13 06:45:42;;;;;;;1.85;1.75;;;;;;;;;;5056641;28;20211;-66
2022/08/13 06:48:13;;;;;;;2.78;1.83;;;;;;;;;;5055111;28;20197;-69
2022/08/13 06:50:44;;;;;;;2.00;1.90;;;;;;;;;;5058370;28;20637;-66
2022/08/13 06:53:13;;;;;;;2.20;1.80;;;;;;;;;;5058323;28;20202;-66
2022/08/13 06:56:02;;;;;;;2.72;1.98;;;;;;;;;;5054289;28;20266;-68
2022/08/13 06:58:50;;;;;;;3.08;2.15;;;;;;;;;;5049038;28;20359;-66
2022/08/13 07:01:25;;;;;;;2.05;1.95;;;;;;;;;;5048001;28;20209;-67
2022/08/13 07:04:02;;;;;;;2.10;1.90;;;;;;;;;;5058804;28;20213;-66
2022/08/13 07:06:30;;;;;;;1.80;1.70;;;;;;;;;;5043344;28;20238;-67
2022/08/13 07:08:58;;;;;;;1.65;1.52;;;;;;;;;;5035706;28;20233;-66
2022/08/13 07:11:28;;;;;;;2.38;1.90;;;;;;;;;;5039054;28;20206;-69
2022/08/13 07:14:06;;;;;;;1.95;1.83;;;;;;;;;;5024294;28;20212;-68
2022/08/13 07:16:40;;;;;;;1.85;1.75;;;;;;;;;;5050374;28;20254;-66
2022/08/13 07:19:11;;;;;;;1.83;1.67;;;;;;;;;;5054603;28;20244;-66
2022/08/13 07:21:40;;;;;;;1.45;1.40;;;;;;;;;;5048711;28;20237;-66
2022/08/13 07:24:10;;;;;;;1.73;1.63;;;;;;;;;;5044005;28;20234;-69
2022/08/13 07:27:07;;;;;;;1.65;1.55;;;;;;;;;;5055035;28;20206;-68
2022/08/13 07:29:37;;;;;;;1.60;1.50;;;;;;;;;;5038380;28;20253;-66
2022/08/13 07:32:20;;;;;;;1.75;1.65;;;;;;;;;;5036266;28;20571;-66
2022/08/13 07:35:00;;;;;;;1.85;1.65;;;;;;;;;;5028985;28;20232;-65
2022/08/13 07:37:27;;;;;;;3.15;1.50;;;;;;;;;;5041212;28;20300;-66
2022/08/13 07:39:56;;;;;;;1.40;1.30;;;;;;;;;;5048899;28;20231;-68
2022/08/13 07:42:27;;;;;;;1.80;1.70;;;;;;;;;;5050406;28;20908;-68
2022/08/13 07:44:58;;;;;;;1.52;1.42;;;;;;;;;;5046183;28;20228;-65
2022/08/13 07:47:50;;;;;;;1.63;1.35;;;;;;;;;;5041566;28;20194;-66
2022/08/13 07:50:38;;;;;;;1.55;1.48;;;;;;;;;;5056393;28;20293;-66
2022/08/13 07:53:10;;;;;;;3.13;1.52;;;;;;;;;;5067348;28;20216;-66
2022/08/13 07:55:43;;;;;;;1.48;1.40;;;;;;;;;;5067859;28;20236;-67
2022/08/13 07:58:33;;;;;;;1.58;1.27;;;;;;;;;;5057065;28;20318;-67
2022/08/13 08:01:02;;;;;;;1.63;1.50;;;;;;;;;;5067094;28;20208;-69
2022/08/13 08:03:45;;;;;;;1.48;1.38;;;;;;;;;;5054155;28;20732;-66
2022/08/13 08:06:19;;;;;;;1.45;1.35;;;;;;;;;;5053514;28;20202;-67
2022/08/13 08:08:57;;;;;;;1.85;1.75;;;;;;;;;;5054583;28;20235;-68
2022/08/13 08:14:27;;;;;;;1.63;1.50;;;;;;;;;;5058816;28;20308;-66
2022/08/13 08:17:01;;;;;;;1.42;1.40;;;;;;;;;;5048467;28;20214;-66
2022/08/13 08:19:50;;;;;;;2.83;1.80;;;;;;;;;;5061918;28;20249;-66
2022/08/13 08:22:45;;;;;;;1.63;1.48;;;;;;;;;;5054596;28;20201;-66
2022/08/13 08:25:17;;;;;;;1.40;1.40;;;;;;;;;;5060029;28;20301;-66
2022/08/13 08:27:47;;;;;;;3.17;1.50;;;;;;;;;;5048153;28;20202;-68
2022/08/13 08:30:37;;;;;;;1.50;1.40;;;;;;;;;;5061294;28;20287;-65
2022/08/13 08:33:19;;;;;;;1.73;1.42;;;;;;;;;;5042797;28;20663;-69
2022/08/13 08:36:07;;;;;;;1.58;1.48;;;;;;;;;;5060208;28;20300;-66
2022/08/13 08:44:23;;;;;;;1.63;1.40;;;;;;;;;;5052600;28;20239;-67
2022/08/13 08:46:56;;;;;;;3.35;1.40;;;;;;;;;;5057114;28;20245;-65
2022/08/13 08:49:25;;;;;;;4.35;1.98;;;;;;;;;;5038057;28;20222;-65
2022/08/13 08:52:09;;;;;;;2.50;1.50;;;;;;;;;;5059385;28;20205;-67
2022/08/13 08:54:40;;;;;;;1.42;1.33;;;;;;;;;;5063514;28;20572;-66
2022/08/13 08:57:09;;;;;;;1.50;1.40;;;;;;;;;;5061132;28;20213;-66
2022/08/13 08:59:42;;;;;;;1.50;1.40;;;;;;;;;;5038412;28;20243;-66
2022/08/13 09:02:24;;;;;;;1.60;1.50;;;;;;;;;;5046111;28;20212;-66
2022/08/13 09:04:54;;;;;;;1.67;1.42;;;;;;;;;;5059876;28;20343;-66
2022/08/13 09:07:36;;;;;;;1.75;1.60;;;;;;;;;;5048295;28;20319;-65
2022/08/13 09:10:05;;;;;;;2.45;1.70;;;;;;;;;;5056078;28;20229;-67
2022/08/13 09:12:35;;;;;;;2.70;1.60;;;;;;;;;;5030474;28;20620;-66
2022/08/13 09:15:03;;;;;;;3.97;1.77;;;;;;;;;;5053874;28;20211;-66
2022/08/13 09:17:33;;;;;;;2.42;1.60;;;;;;;;;;5070203;28;20206;-65
2022/08/13 09:20:17;;;;;;;1.73;1.60;;;;;;;;;;5056072;28;20235;-66
2022/08/13 09:22:46;;;;;;;1.65;1.33;;;;;;;;;;5045023;28;20209;-65
2022/08/13 09:25:23;;;;;;;5.65;1.73;;;;;;;;;;5052269;28;20312;-65
2022/08/13 09:27:52;;;;;;;1.48;1.38;;;;;;;;;;5054021;28;20201;-65
2022/08/13 09:30:30;;;;;;;2.75;1.35;;;;;;;;;;5044388;28;21118;-65
2022/08/13 09:33:00;;;;;;;3.03;1.67;;;;;;;;;;5043216;28;20193;-64
2022/08/13 09:35:31;;;;;;;1.40;1.40;;;;;;;;;;5044687;28;20210;-66
2022/08/13 09:38:04;;;;;;;1.63;1.52;;;;;;;;;;5051423;28;20204;-64
2022/08/13 09:40:32;;;;;;;3.13;1.45;;;;;;;;;;5051353;28;20224;-66
2022/08/13 09:43:18;;;;;;;1.50;1.40;;;;;;;;;;5063490;28;20204;-67
2022/08/13 09:46:07;;;;;;;1.95;1.50;;;;;;;;;;5065420;28;20252;-66
2022/08/13 09:48:35;;;;;;;1.50;1.40;;;;;;;;;;5060797;28;20610;-66
2022/08/13 09:51:13;;;;;;;3.38;1.50;;;;;;;;;;5064396;28;20803;-66
2022/08/13 09:54:05;;;;;;;2.65;1.48;;;;;;;;;;5055010;28;20205;-65
2022/08/13 09:56:37;;;;;;;1.73;1.13;;;;;;;;;;5045446;28;20693;-66
2022/08/13 09:59:06;;;;;;;3.08;1.35;;;;;;;;;;5062523;28;20257;-65
2022/08/13 10:01:41;;;;;;;2.17;1.20;;;;;;;;;;5061884;28;20632;-66
2022/08/13 10:04:26;;;;;;;2.35;1.40;;;;;;;;;;5052949;28;20225;-66
2022/08/13 10:06:59;;;;;;;1.70;1.60;;;;;;;;;;5045987;28;20211;-66
2022/08/13 10:09:37;;;;;;;2.55;1.52;;;;;;;;;;5054036;28;20216;-65
2022/08/13 10:12:22;;;;;;;2.20;1.58;;;;;;;;;;5062405;28;20661;-66
2022/08/13 10:14:49;;;;;;;2.55;1.30;;;;;;;;;;5037482;28;20209;-65
2022/08/13 10:17:28;;;;;;;1.90;1.30;;;;;;;;;;5054338;28;20585;-66
2022/08/13 10:20:16;;;;;;;1.70;1.60;;;;;;;;;;5061318;28;20270;-65
2022/08/13 10:22:46;;;;;;;1.48;1.38;;;;;;;;;;5055453;28;20306;-65
2022/08/13 10:25:15;;;;;;;2.03;1.70;;;;;;;;;;5057702;28;20232;-65
2022/08/13 10:27:45;;;;;;;1.95;1.77;;;;;;;;;;5058972;28;20201;-65
2022/08/13 10:30:17;;;;;;;1.20;1.20;;;;;;;;;;5061574;28;20225;-65
2022/08/13 10:33:04;;;;;;;1.55;1.40;;;;;;;;;;5064324;28;20283;-65
2022/08/13 10:35:32;;;;;;;1.70;1.48;;;;;;;;;;5062659;28;20213;-66
2022/08/13 10:38:08;;;;;;;2.30;1.65;;;;;;;;;;5049095;28;20213;-66
2022/08/13 10:40:35;;;;;;;1.75;1.63;;;;;;;;;;5047714;28;20225;-66
2022/08/13 10:43:05;;;;;;;2.80;1.40;;;;;;;;;;5048880;28;20216;-66
2022/08/13 10:45:49;;;;;;;2.85;1.85;;;;;;;;;;5042313;28;20226;-66
2022/08/13 10:48:17;;;;;;;1.92;1.60;;;;;;;;;;5060669;28;20210;-67
2022/08/13 10:50:46;;;;;;;2.65;1.40;;;;;;;;;;5028868;28;20248;-66
2022/08/13 10:56:09;;;;;;;3.58;1.60;;;;;;;;;;5047683;28;20220;-65
2022/08/13 10:58:39;;;;;;;2.55;1.65;;;;;;;;;;5067222;28;20698;-65
2022/08/13 11:01:20;;;;;;;1.65;1.48;;;;;;;;;;5039831;28;20201;-66
2022/08/13 11:03:48;;;;;;;2.38;1.52;;;;;;;;;;5045178;28;20260;-66
2022/08/13 11:06:32;;;;;;;2.60;1.48;;;;;;;;;;5036788;28;20209;-65
2022/08/13 11:09:01;;;;;;;6.22;1.50;;;;;;;;;;5051609;28;20322;-65
2022/08/13 11:11:49;;;;;;;1.70;1.48;;;;;;;;;;5044061;28;20270;-65
2022/08/13 11:14:21;;;;;;;3.90;1.38;;;;;;;;;;5053323;28;20682;-66
2022/08/13 11:16:57;;;;;;;1.40;1.30;;;;;;;;;;5039597;28;20205;-67
2022/08/13 11:19:33;;;;;;;1.42;1.33;;;;;;;;;;5039518;28;20298;-65
2022/08/13 11:22:18;;;;;;;1.42;1.33;;;;;;;;;;5059659;28;20239;-66
2022/08/13 11:24:58;;;;;;;1.83;1.42;;;;;;;;;;5045273;28;20217;-66
2022/08/13 11:27:36;;;;;;;1.30;1.17;;;;;;;;;;5053473;28;20213;-67
2022/08/13 11:30:18;;;;;;;2.20;1.52;;;;;;;;;;5056248;28;20601;-66
2022/08/13 11:32:57;;;;;;;1.42;1.33;;;;;;;;;;5038138;28;21038;-66
2022/08/13 11:35:25;;;;;;;4.00;1.58;;;;;;;;;;5045008;28;20300;-67
2022/08/13 11:37:54;;;;;;;1.10;1.10;;;;;;;;;;5048919;28;20208;-67
2022/08/13 11:40:24;;;;;;;2.05;1.38;;;;;;;;;;5031126;28;20323;-67
2022/08/13 11:43:00;;;;;;;1.25;1.10;;;;;;;;;;5044049;28;20283;-66
2022/08/13 11:45:38;;;;;;;1.67;1.40;;;;;;;;;;5041557;28;20275;-66
2022/08/13 11:48:14;;;;;;;1.52;1.27;;;;;;;;;;5049833;28;20255;-67
2022/08/13 11:50:49;;;;;;;2.70;1.23;;;;;;;;;;5062769;28;20217;-67
2022/08/13 11:53:17;;;;;;;1.75;1.40;;;;;;;;;;5062388;28;20206;-66
2022/08/13 11:55:51;;;;;;;2.67;1.17;;;;;;;;;;5058248;28;20210;-66
2022/08/13 11:58:27;;;;;;;2.30;1.45;;;;;;;;;;5057466;28;20209;-66
2022/08/13 12:01:18;;;;;;;1.20;1.10;;;;;;;;;;5035829;28;22617;-66
2022/08/13 12:03:52;;;;;;;1.40;1.10;;;;;;;;;;5047448;28;20654;-66
2022/08/13 12:06:39;;;;;;;1.58;1.25;;;;;;;;;;5038356;28;20220;-66
2022/08/13 12:09:07;;;;;;;2.17;1.25;;;;;;;;;;5039269;28;20237;-66
2022/08/13 12:11:57;;;;;;;1.40;1.25;;;;;;;;;;5036967;28;20209;-67
2022/08/13 12:14:38;;;;;;;1.30;1.20;;;;;;;;;;5041625;28;20198;-67
2022/08/13 12:17:05;;;;;;;2.45;1.40;;;;;;;;;;5020906;28;20202;-66
2022/08/13 12:19:34;;;;;;;2.03;1.20;;;;;;;;;;5041512;28;20263;-64
2022/08/13 12:22:03;;;;;;;2.72;1.20;;;;;;;;;;5049932;28;20237;-64
2022/08/13 12:24:33;;;;;;;2.05;1.17;;;;;;;;;;5060904;28;20198;-65
2022/08/13 12:27:01;;;;;;;1.95;1.50;;;;;;;;;;5050584;28;20213;-65
2022/08/13 12:29:31;;;;;;;1.52;1.40;;;;;;;;;;5059805;28;20233;-65
2022/08/13 12:32:14;;;;;;;1.33;1.20;;;;;;;;;;5053469;28;20197;-66
2022/08/13 12:34:45;;;;;;;1.77;1.42;;;;;;;;;;5049784;28;20201;-65
2022/08/13 12:37:20;;;;;;;1.75;1.10;;;;;;;;;;5052302;28;20300;-65
2022/08/13 12:39:53;;;;;;;1.55;1.45;;;;;;;;;;5036177;28;20225;-65
2022/08/13 12:42:23;;;;;;;1.80;1.30;;;;;;;;;;5054107;28;20288;-65
2022/08/13 12:44:55;;;;;;;2.15;1.35;;;;;;;;;;5055084;28;20232;-65
2022/08/13 12:47:45;;;;;;;3.47;1.40;;;;;;;;;;5037232;28;20267;-66
2022/08/13 12:50:17;;;;;;;1.98;1.40;;;;;;;;;;5067255;28;20229;-65
2022/08/13 12:52:49;;;;;;;1.33;1.15;;;;;;;;;;5052684;28;20627;-67
2022/08/13 12:55:17;;;;;;;1.30;1.20;;;;;;;;;;5052639;28;20232;-66
2022/08/13 12:58:13;;;;;;;1.08;1.02;;;;;;;;;;5053414;28;20731;-66
2022/08/13 13:00:42;;;;;;;1.73;1.27;;;;;;;;;;5054958;28;20201;-67
2022/08/13 13:03:09;;;;;;;1.30;1.20;;;;;;;;;;5039932;28;20205;-67
2022/08/13 13:05:43;;;;;;;1.40;1.30;;;;;;;;;;5054321;28;20297;-66
2022/08/13 13:08:20;;;;;;;1.85;1.23;;;;;;;;;;5053268;28;20208;-66
2022/08/13 13:11:09;;;;;;;1.33;1.17;;;;;;;;;;5042525;28;20202;-66
2022/08/13 13:13:41;;;;;;;2.95;1.38;;;;;;;;;;5051691;28;20194;-65
2022/08/13 13:16:22;;;;;;;2.15;1.20;;;;;;;;;;5051562;28;20210;-66
2022/08/13 13:19:03;;;;;;;3.95;1.90;;;;;;;;;;5054584;28;20318;-66
2022/08/13 13:21:37;;;;;;;2.47;1.50;;;;;;;;;;5046756;28;20213;-66
2022/08/13 13:24:07;;;;;;;1.60;1.13;;;;;;;;;;5050002;28;20655;-66
2022/08/13 13:26:49;;;;;;;2.55;2.20;;;;;;;;;;5036849;28;20217;-65
2022/08/13 13:29:29;;;;;;;2.88;1.63;;;;;;;;;;5047835;28;20220;-67
2022/08/13 13:32:02;;;;;;;5.00;3.20;;;;;;;;;;5047534;28;20201;-66
2022/08/13 13:34:50;;;;;;;3.13;2.83;;;;;;;;;;5054154;28;20194;-67
2022/08/13 13:37:21;;;;;;;1.63;1.50;;;;;;;;;;5045374;28;20652;-66
2022/08/13 13:39:48;;;;;;;1.77;1.67;;;;;;;;;;5044432;28;20618;-66
2022/08/13 13:42:16;;;;;;;1.52;1.23;;;;;;;;;;5060993;28;20646;-66
2022/08/13 13:44:57;;;;;;;1.38;1.27;;;;;;;;;;5054168;28;20671;-66
2022/08/13 13:47:24;;;;;;;3.20;2.47;;;;;;;;;;5062599;28;20274;-66
2022/08/13 13:50:00;;;;;;;1.63;1.52;;;;;;;;;;5052082;28;20245;-67
2022/08/13 13:52:28;;;;;;;2.75;1.20;;;;;;;;;;5054576;28;20551;-66
2022/08/13 13:54:55;;;;;;;2.05;1.42;;;;;;;;;;5072923;28;21168;-66
2022/08/13 13:57:26;;;;;;;2.30;2.20;;;;;;;;;;5049870;28;20330;-66
2022/08/13 14:00:05;;;;;;;1.75;1.45;;;;;;;;;;5042513;28;21069;-66
2022/08/13 14:02:36;;;;;;;4.50;2.13;;;;;;;;;;5054917;28;20198;-66
2022/08/13 14:05:09;;;;;;;2.60;1.60;;;;;;;;;;5038687;28;20233;-66
2022/08/13 14:07:54;;;;;;;1.38;1.27;;;;;;;;;;5069719;28;20300;-66
2022/08/13 14:10:22;;;;;;;1.48;1.30;;;;;;;;;;5056087;28;20345;-65
2022/08/13 14:12:51;;;;;;;1.45;1.35;;;;;;;;;;5051117;28;20327;-65
2022/08/13 14:15:38;;;;;;;1.40;1.30;;;;;;;;;;5038754;28;20729;-66
2022/08/13 14:18:10;;;;;;;1.42;1.20;;;;;;;;;;5052257;28;20233;-66
2022/08/13 14:20:55;;;;;;;2.53;1.30;;;;;;;;;;5050878;28;20201;-66
2022/08/13 14:23:25;;;;;;;1.45;1.35;;;;;;;;;;5052268;28;20201;-66
2022/08/13 14:26:11;;;;;;;4.60;1.50;;;;;;;;;;5054680;28;20209;-66
2022/08/13 14:28:48;;;;;;;1.45;1.30;;;;;;;;;;5038303;28;25093;-66
2022/08/13 14:31:17;;;;;;;1.48;1.38;;;;;;;;;;5037303;28;20206;-67
2022/08/13 14:33:45;;;;;;;2.63;1.38;;;;;;;;;;5052845;28;23138;-64
2022/08/13 14:36:30;;;;;;;2.45;1.40;;;;;;;;;;5051026;28;21614;-67
2022/08/13 14:39:01;;;;;;;1.40;1.33;;;;;;;;;;5048588;28;20228;-67
2022/08/13 14:41:46;;;;;;;1.77;1.30;;;;;;;;;;5050325;28;20216;-67
2022/08/13 14:44:14;;;;;;;1.90;1.20;;;;;;;;;;5052724;28;20302;-66
2022/08/13 14:47:03;;;;;;;3.08;1.38;;;;;;;;;;5053230;28;20222;-68
2022/08/13 14:49:42;;;;;;;1.40;1.30;;;;;;;;;;5050069;28;21164;-65
2022/08/13 14:52:24;;;;;;;2.33;1.50;;;;;;;;;;5047984;28;20206;-65
2022/08/13 14:55:05;;;;;;;1.30;1.30;;;;;;;;;;5059218;28;20725;-65
2022/08/13 14:57:34;;;;;;;4.80;1.40;;;;;;;;;;5057131;28;20295;-66
2022/08/13 15:00:12;;;;;;;1.98;1.40;;;;;;;;;;5047974;28;21876;-68
2022/08/13 15:02:54;;;;;;;2.47;1.40;;;;;;;;;;5043499;28;21117;-66
2022/08/13 15:05:43;;;;;;;1.20;1.20;;;;;;;;;;5050361;28;20275;-66
2022/08/13 15:08:22;;;;;;;2.10;1.30;;;;;;;;;;5061245;28;20198;-66
2022/08/13 15:11:00;;;;;;;1.88;1.17;;;;;;;;;;5048050;28;20201;-65
2022/08/13 15:13:34;;;;;;;2.55;1.40;;;;;;;;;;5058614;28;20570;-65
2022/08/13 15:16:23;;;;;;;1.90;1.27;;;;;;;;;;5051400;28;20206;-65
2022/08/13 15:18:58;;;;;;;2.92;1.20;;;;;;;;;;5056623;28;20316;-65
2022/08/13 15:21:29;;;;;;;2.90;1.30;;;;;;;;;;5058682;28;20222;-65
2022/08/13 15:24:37;;;;;;;1.48;1.20;;;;;;;;;;5053549;28;20575;-64
2022/08/13 15:27:29;;;;;;;1.40;1.30;;;;;;;;;;5060120;28;21533;-66
2022/08/13 15:30:02;;;;;;;1.50;1.30;;;;;;;;;;5066734;28;22337;-66
2022/08/13 15:32:30;;;;;;;1.60;1.40;;;;;;;;;;5043870;28;20242;-65
2022/08/13 15:35:00;;;;;;;1.73;1.13;;;;;;;;;;5050613;28;20232;-64
2022/08/13 15:37:28;;;;;;;1.33;1.23;;;;;;;;;;5050243;28;20217;-65
2022/08/13 15:40:18;;;;;;;1.42;1.33;;;;;;;;;;5046379;28;20225;-64
2022/08/13 15:42:48;;;;;;;1.30;1.20;;;;;;;;;;5040354;28;20201;-65
2022/08/13 15:45:16;;;;;;;2.25;1.20;;;;;;;;;;5048060;28;20210;-65
2022/08/13 15:47:49;;;;;;;1.48;1.38;;;;;;;;;;5047950;28;20684;-65
2022/08/13 15:50:17;;;;;;;1.10;1.10;;;;;;;;;;5044677;28;20222;-66
2022/08/13 15:52:45;;;;;;;2.55;1.35;;;;;;;;;;5029833;28;20793;-65
2022/08/13 15:55:12;;;;;;;1.30;1.20;;;;;;;;;;5061397;28;20276;-66
2022/08/13 15:57:47;;;;;;;1.10;1.10;;;;;;;;;;5043361;28;20891;-66